createdAt,value
2018-03-31T00:01:13.109Z,100171.35
2018-03-31T00:03:39.863Z,100168.64
2018-03-31T00:06:07.277Z,100163.73
2018-03-31T00:08:34.083Z,100158.37
2018-03-31T00:11:00.562Z,100164.80
2018-03-31T00:13:27.047Z,100159.23
2018-03-31T00:15:53.708Z,100150.25
2018-03-31T00:18:20.239Z,100147.33
2018-03-31T00:20:46.726Z,100143.53
2018-03-31T00:23:14.086Z,100147.54
2018-03-31T00:25:40.732Z,100147.35
2018-03-31T00:28:07.229Z,100139.17
2018-03-31T00:30:33.779Z,100137.11
2018-03-31T00:33:01.062Z,100135.65
2018-03-31T00:35:27.533Z,100128.19
2018-03-31T00:37:54.153Z,100123.83
2018-03-31T00:40:20.631Z,100129.94
2018-03-31T00:42:47.126Z,100128.00
2018-03-31T00:45:13.801Z,100115.59
2018-03-31T00:47:40.332Z,100112.69
2018-03-31T00:50:06.813Z,100107.33
2018-03-31T00:52:33.551Z,100097.31
2018-03-31T00:55:00.788Z,100103.32
2018-03-31T00:57:28.074Z,100106.88
2018-03-31T00:59:54.745Z,100105.18
2018-03-31T01:02:21.210Z,100110.86
2018-03-31T01:04:47.692Z,100104.88
2018-03-31T01:07:14.496Z,100104.83
2018-03-31T01:09:40.994Z,100103.22
2018-03-31T01:12:07.490Z,100099.42
2018-03-31T01:14:34.201Z,100104.88
2018-03-31T01:17:00.682Z,100110.86
2018-03-31T01:19:27.580Z,100113.61
2018-03-31T01:21:54.261Z,100118.20
2018-03-31T01:24:20.752Z,100118.87
2018-03-31T01:26:47.391Z,100127.73
2018-03-31T01:29:14.082Z,100126.58
2018-03-31T01:31:40.562Z,100124.78
2018-03-31T01:34:07.123Z,100136.25
2018-03-31T01:36:33.810Z,100143.16
2018-03-31T01:39:00.302Z,100164.62
2018-03-31T01:41:26.823Z,100176.98
2018-03-31T01:43:53.458Z,100208.94
2018-03-31T01:46:19.947Z,100223.77
2018-03-31T01:48:46.409Z,100215.81
2018-03-31T01:51:12.951Z,100193.27
2018-03-31T01:53:39.491Z,100193.09
2018-03-31T01:56:06.178Z,100199.23
2018-03-31T01:58:33.635Z,100202.41
2018-03-31T02:01:00.869Z,100200.35
2018-03-31T02:03:27.399Z,100189.43
2018-03-31T02:05:54.162Z,100175.59
2018-03-31T02:08:21.447Z,100170.22
2018-03-31T02:10:47.934Z,100165.75
2018-03-31T02:13:14.448Z,100154.12
2018-03-31T02:15:40.936Z,100155.93
2018-03-31T02:18:07.468Z,100172.05
2018-03-31T02:20:34.106Z,100177.73
2018-03-31T02:23:01.324Z,100174.57
2018-03-31T02:25:27.831Z,100182.13
2018-03-31T02:27:54.506Z,100178.41
2018-03-31T02:30:20.991Z,100178.63
2018-03-31T02:32:47.522Z,100179.52
2018-03-31T02:35:14.109Z,100180.19
2018-03-31T02:37:40.930Z,100170.27
2018-03-31T02:40:07.460Z,100169.92
2018-03-31T02:42:34.104Z,100167.62
2018-03-31T02:45:00.579Z,100162.92
2018-03-31T02:47:27.802Z,100155.58
2018-03-31T02:49:54.413Z,100154.84
2018-03-31T02:52:20.998Z,100155.86
2018-03-31T02:54:47.472Z,100153.64
2018-03-31T02:57:14.883Z,100142.16
2018-03-31T02:59:41.404Z,100141.36
2018-03-31T03:02:07.896Z,100144.95
2018-03-31T03:04:35.215Z,100144.89
2018-03-31T03:07:01.729Z,100151.11
2018-03-31T03:09:28.290Z,100147.25
2018-03-31T03:11:54.957Z,100150.83
2018-03-31T03:14:22.223Z,100150.48
2018-03-31T03:16:49.500Z,100150.64
2018-03-31T03:19:16.052Z,100142.60
2018-03-31T03:21:42.584Z,100138.83
2018-03-31T03:24:09.056Z,100144.09
2018-03-31T03:26:35.698Z,100142.03
2018-03-31T03:29:02.190Z,100135.63
2018-03-31T03:31:28.674Z,100134.89
2018-03-31T03:33:56.067Z,100137.45
2018-03-31T03:36:22.621Z,100144.52
2018-03-31T03:38:49.141Z,100139.52
2018-03-31T03:41:15.701Z,100139.88
2018-03-31T03:43:43.020Z,100141.09
2018-03-31T03:46:10.294Z,100138.45
2018-03-31T03:48:36.826Z,100134.89
2018-03-31T03:51:03.348Z,100144.89
2018-03-31T03:53:30.611Z,100134.30
2018-03-31T03:55:57.267Z,100135.50
2018-03-31T03:58:23.755Z,100137.66
2018-03-31T04:00:50.226Z,100137.27
2018-03-31T04:03:16.909Z,100136.65
2018-03-31T04:05:43.394Z,100139.68
2018-03-31T04:08:10.253Z,100146.52
2018-03-31T04:10:36.997Z,100145.89
2018-03-31T04:13:03.512Z,100133.28
2018-03-31T04:15:30.039Z,100131.41
2018-03-31T04:17:57.291Z,100136.33
2018-03-31T04:20:24.501Z,100142.21
2018-03-31T04:22:50.975Z,100135.53
2018-03-31T04:25:17.549Z,100141.41
2018-03-31T04:27:44.085Z,100129.14
2018-03-31T04:30:10.571Z,100125.95
2018-03-31T04:32:37.085Z,100136.95
2018-03-31T04:35:03.563Z,100135.75
2018-03-31T04:37:30.833Z,100131.02
2018-03-31T04:39:58.106Z,100140.12
2018-03-31T04:42:24.607Z,100137.61
2018-03-31T04:44:51.822Z,100136.56
2018-03-31T04:47:18.544Z,100139.04
2018-03-31T04:49:45.030Z,100144.70
2018-03-31T04:52:12.300Z,100148.61
2018-03-31T04:54:39.617Z,100140.84
2018-03-31T04:57:06.089Z,100141.61
2018-03-31T04:59:33.314Z,100144.31
2018-03-31T05:01:59.972Z,100146.54
2018-03-31T05:04:27.296Z,100146.88
2018-03-31T05:06:53.815Z,100144.91
2018-03-31T05:09:20.461Z,100143.67
2018-03-31T05:11:46.980Z,100143.02
2018-03-31T05:14:13.495Z,100154.89
2018-03-31T05:16:40.147Z,100160.61
2018-03-31T05:19:06.686Z,100160.95
2018-03-31T05:21:33.207Z,100161.67
2018-03-31T05:23:59.899Z,100160.48
2018-03-31T05:26:26.408Z,100161.28
2018-03-31T05:28:52.934Z,100169.11
2018-03-31T05:31:20.007Z,100170.53
2018-03-31T05:33:46.508Z,100173.08
2018-03-31T05:36:13.045Z,100176.73
2018-03-31T05:38:39.587Z,100182.52
2018-03-31T05:41:06.068Z,100179.03
2018-03-31T05:43:32.537Z,100178.22
2018-03-31T05:45:59.108Z,100174.10
2018-03-31T05:48:25.592Z,100174.43
2018-03-31T05:50:52.082Z,100177.20
2018-03-31T05:53:18.754Z,100176.88
2018-03-31T05:55:45.248Z,100184.20
2018-03-31T05:58:11.726Z,100186.25
2018-03-31T06:00:38.396Z,100190.14
2018-03-31T06:03:05.623Z,100195.61
2018-03-31T06:05:32.163Z,100198.02
2018-03-31T06:07:58.930Z,100197.51
2018-03-31T06:10:26.191Z,100199.03
2018-03-31T06:12:53.436Z,100200.71
2018-03-31T06:15:20.885Z,100205.20
2018-03-31T06:17:47.441Z,100212.08
2018-03-31T06:20:14.709Z,100211.92
2018-03-31T06:22:41.336Z,100215.25
2018-03-31T06:25:08.550Z,100213.42
2018-03-31T06:27:35.033Z,100219.15
2018-03-31T06:30:01.562Z,100220.10
2018-03-31T06:32:28.805Z,100215.58
2018-03-31T06:34:56.021Z,100211.86
2018-03-31T06:37:22.614Z,100217.80
2018-03-31T06:39:49.821Z,100220.54
2018-03-31T06:42:16.331Z,100215.55
2018-03-31T06:44:48.956Z,100214.53
2018-03-31T06:47:15.439Z,100220.08
2018-03-31T06:49:41.990Z,100214.28
2018-03-31T06:52:08.498Z,100218.58
2018-03-31T06:54:34.982Z,100219.63
2018-03-31T06:57:01.458Z,100230.27
2018-03-31T06:59:28.721Z,100227.50
2018-03-31T07:01:55.242Z,100226.34
2018-03-31T07:04:22.466Z,100220.30
2018-03-31T07:06:49.222Z,100224.48
2018-03-31T07:09:15.689Z,100231.70
2018-03-31T07:11:42.171Z,100230.50
2018-03-31T07:14:08.836Z,100235.41
2018-03-31T07:16:36.092Z,100228.60
2018-03-31T07:19:02.573Z,100228.92
2018-03-31T07:21:29.262Z,100228.53
2018-03-31T07:23:55.742Z,100229.15
2018-03-31T07:26:22.227Z,100225.03
2018-03-31T07:28:48.920Z,100227.73
2018-03-31T07:31:15.413Z,100224.34
2018-03-31T07:33:41.876Z,100228.67
2018-03-31T07:36:08.582Z,100232.39
2018-03-31T07:38:35.063Z,100230.35
2018-03-31T07:41:01.542Z,100231.70
2018-03-31T07:43:28.194Z,100236.69
2018-03-31T07:45:54.712Z,100245.33
2018-03-31T07:48:21.238Z,100236.94
2018-03-31T07:50:47.761Z,100243.58
2018-03-31T07:53:14.233Z,100232.97
2018-03-31T07:55:40.708Z,100237.78
2018-03-31T07:58:07.427Z,100248.17
2018-03-31T08:00:34.679Z,100245.25
2018-03-31T08:03:01.893Z,100244.67
2018-03-31T08:05:28.675Z,100256.19
2018-03-31T08:07:55.927Z,100255.13
2018-03-31T08:10:22.440Z,100246.82
2018-03-31T08:12:49.082Z,100247.77
2018-03-31T08:15:15.569Z,100237.16
2018-03-31T08:17:42.047Z,100243.25
2018-03-31T08:20:08.724Z,100243.98
2018-03-31T08:22:35.943Z,100244.13
2018-03-31T08:25:02.410Z,100246.56
2018-03-31T08:27:29.783Z,100245.98
2018-03-31T08:29:56.325Z,100245.91
2018-03-31T08:32:22.789Z,100251.59
2018-03-31T08:34:49.354Z,100259.13
2018-03-31T08:37:15.883Z,100260.30
2018-03-31T08:39:42.366Z,100258.22
2018-03-31T08:42:08.994Z,100255.27
2018-03-31T08:44:35.492Z,100261.67
2018-03-31T08:47:02.055Z,100258.65
2018-03-31T08:49:29.475Z,100255.41
2018-03-31T08:51:55.959Z,100261.06
2018-03-31T08:54:23.179Z,100257.95
2018-03-31T08:56:49.888Z,100256.63
2018-03-31T08:59:16.375Z,100261.30
2018-03-31T09:01:42.861Z,100263.30
2018-03-31T09:04:09.547Z,100259.94
2018-03-31T09:06:36.117Z,100266.80
2018-03-31T09:09:02.647Z,100266.22
2018-03-31T09:11:30.034Z,100264.64
2018-03-31T09:13:57.296Z,100265.04
2018-03-31T09:16:23.765Z,100260.94
2018-03-31T09:18:50.511Z,100264.52
2018-03-31T09:21:17.739Z,100258.58
2018-03-31T09:23:44.258Z,100259.72
2018-03-31T09:26:10.924Z,100264.26
2018-03-31T09:28:37.431Z,100261.50
2018-03-31T09:31:03.911Z,100262.45
2018-03-31T09:33:30.720Z,100272.03
2018-03-31T09:35:57.197Z,100272.03
2018-03-31T09:38:24.418Z,100268.92
2018-03-31T09:40:51.082Z,100263.17
2018-03-31T09:43:17.558Z,100269.06
2018-03-31T09:45:44.033Z,100272.62
2018-03-31T09:48:10.713Z,100269.11
2018-03-31T09:50:37.276Z,100275.02
2018-03-31T09:53:03.745Z,100273.31
2018-03-31T09:55:30.255Z,100275.14
2018-03-31T09:57:57.087Z,100268.03
2018-03-31T10:00:29.564Z,100270.53
2018-03-31T10:02:56.074Z,100269.76
2018-03-31T10:05:23.337Z,100269.89
2018-03-31T10:07:50.068Z,100281.29
2018-03-31T10:10:17.283Z,100282.33
2018-03-31T10:12:43.784Z,100278.81
2018-03-31T10:15:10.468Z,100279.91
2018-03-31T10:17:36.976Z,100270.00
2018-03-31T10:20:03.449Z,100271.94
2018-03-31T10:22:30.058Z,100276.07
2018-03-31T10:24:56.583Z,100276.59
2018-03-31T10:27:23.057Z,100277.55
2018-03-31T10:29:49.600Z,100281.83
2018-03-31T10:32:16.077Z,100272.73
2018-03-31T10:34:42.599Z,100271.23
2018-03-31T10:37:09.232Z,100271.56
2018-03-31T10:39:36.502Z,100272.55
2018-03-31T10:42:03.310Z,100273.93
2018-03-31T10:44:30.062Z,100270.37
2018-03-31T10:46:57.343Z,100278.94
2018-03-31T10:49:23.814Z,100271.69
2018-03-31T10:51:51.223Z,100273.67
2018-03-31T10:54:17.718Z,100267.37
2018-03-31T10:56:44.202Z,100265.50
2018-03-31T10:59:10.815Z,100272.41
2018-03-31T11:01:37.285Z,100272.19
2018-03-31T11:04:03.761Z,100276.18
2018-03-31T11:06:30.278Z,100268.18
2018-03-31T11:08:56.794Z,100277.50
2018-03-31T11:11:23.264Z,100271.25
2018-03-31T11:13:49.888Z,100267.12
2018-03-31T11:16:16.368Z,100269.60
2018-03-31T11:18:43.581Z,100261.26
2018-03-31T11:21:10.905Z,100269.84
2018-03-31T11:23:37.425Z,100271.15
2018-03-31T11:26:04.638Z,100275.16
2018-03-31T11:28:31.386Z,100275.37
2018-03-31T11:30:57.911Z,100273.52
2018-03-31T11:33:24.400Z,100270.02
2018-03-31T11:35:50.939Z,100276.00
2018-03-31T11:38:17.429Z,100276.56
2018-03-31T11:40:43.961Z,100271.36
2018-03-31T11:43:10.647Z,100277.27
2018-03-31T11:45:37.872Z,100279.48
2018-03-31T11:48:04.351Z,100279.88
2018-03-31T11:50:31.015Z,100289.05
2018-03-31T11:52:58.305Z,100276.52
2018-03-31T11:55:24.788Z,100278.44
2018-03-31T11:57:51.311Z,100280.41
2018-03-31T12:00:17.838Z,100284.80
2018-03-31T12:02:44.320Z,100284.95
2018-03-31T12:05:10.998Z,100294.30
2018-03-31T12:07:38.217Z,100290.98
2018-03-31T12:10:04.713Z,100294.23
2018-03-31T12:12:31.420Z,100297.19
2018-03-31T12:14:57.906Z,100299.72
2018-03-31T12:17:24.391Z,100305.87
2018-03-31T12:19:51.057Z,100303.96
2018-03-31T12:22:17.573Z,100304.02
2018-03-31T12:24:44.101Z,100308.33
2018-03-31T12:27:10.797Z,100310.23
2018-03-31T12:29:38.011Z,100308.88
2018-03-31T12:32:05.276Z,100311.25
2018-03-31T12:34:31.999Z,100304.98
2018-03-31T12:36:59.254Z,100308.41
2018-03-31T12:39:26.485Z,100306.36
2018-03-31T12:41:53.119Z,100310.41
2018-03-31T12:44:19.744Z,100303.04
2018-03-31T12:46:46.236Z,100303.16
2018-03-31T12:49:13.598Z,100299.62
2018-03-31T12:51:40.117Z,100301.87
2018-03-31T12:54:07.374Z,100300.05
2018-03-31T12:56:34.857Z,100297.72
2018-03-31T12:59:01.755Z,100297.20
2018-03-31T13:01:28.994Z,100296.21
2018-03-31T13:03:55.762Z,100284.20
2018-03-31T13:06:22.986Z,100284.45
2018-03-31T13:08:49.521Z,100285.39
2018-03-31T13:11:16.367Z,100280.72
2018-03-31T13:13:43.022Z,100279.03
2018-03-31T13:16:09.575Z,100289.33
2018-03-31T13:18:36.235Z,100288.74
2018-03-31T13:21:03.467Z,100288.70
2018-03-31T13:23:29.947Z,100286.71
2018-03-31T13:25:56.463Z,100289.02
2018-03-31T13:28:22.937Z,100282.88
2018-03-31T13:30:49.415Z,100281.31
2018-03-31T13:33:16.073Z,100279.83
2018-03-31T13:35:42.563Z,100281.55
2018-03-31T13:38:09.063Z,100279.70
2018-03-31T13:40:35.635Z,100281.22
2018-03-31T13:43:02.115Z,100274.73
2018-03-31T13:45:29.388Z,100280.31
2018-03-31T13:47:56.092Z,100281.11
2018-03-31T13:50:22.624Z,100288.89
2018-03-31T13:52:49.102Z,100285.59
2018-03-31T13:55:15.788Z,100288.55
2018-03-31T13:57:42.272Z,100281.88
2018-03-31T14:00:08.751Z,100288.97
2018-03-31T14:02:35.436Z,100289.28
2018-03-31T14:05:01.922Z,100286.31
2018-03-31T14:07:28.407Z,100290.16
2018-03-31T14:09:55.779Z,100291.56
2018-03-31T14:12:22.279Z,100292.80
2018-03-31T14:14:48.759Z,100289.47
2018-03-31T14:17:15.443Z,100288.52
2018-03-31T14:19:41.959Z,100290.62
2018-03-31T14:22:08.452Z,100288.27
2018-03-31T14:24:35.725Z,100291.64
2018-03-31T14:27:02.222Z,100293.94
2018-03-31T14:29:28.700Z,100297.32
2018-03-31T14:31:55.458Z,100297.70
2018-03-31T14:34:21.942Z,100292.89
2018-03-31T14:36:49.188Z,100292.50
2018-03-31T14:39:15.864Z,100299.13
2018-03-31T20:18:16.486Z,100488.84
2018-03-31T20:20:42.971Z,100484.66
2018-03-31T20:23:10.235Z,100486.76
2018-03-31T20:25:36.770Z,100485.18
2018-03-31T20:28:03.245Z,100489.94
2018-03-31T20:30:29.766Z,100486.92
2018-03-31T20:32:56.298Z,100488.93
2018-03-31T20:35:22.813Z,100481.73
2018-03-31T20:37:49.305Z,100480.77
2018-03-31T20:40:16.285Z,100480.22
2018-03-31T20:42:43.491Z,100479.25
2018-03-31T20:45:11.032Z,100473.69
2018-03-31T20:47:37.608Z,100470.00
2018-03-31T20:50:04.124Z,100469.11
2018-03-31T20:52:30.608Z,100467.65
2018-03-31T20:54:58.003Z,100464.95
2018-03-31T20:57:24.476Z,100471.45
2018-03-31T20:59:50.958Z,100469.80
2018-03-31T21:02:17.627Z,100466.41
2018-03-31T21:04:44.115Z,100468.25
2018-03-31T21:07:10.602Z,100461.97
2018-03-31T21:09:37.391Z,100466.75
2018-03-31T21:12:04.621Z,100470.11
2018-03-31T21:14:31.106Z,100469.88
2018-03-31T21:16:57.942Z,100467.73
2018-03-31T21:19:24.485Z,100465.35
2018-03-31T21:21:50.969Z,100467.16
2018-03-31T21:24:17.635Z,100464.69
2018-03-31T21:26:44.896Z,100459.09
2018-03-31T21:29:12.146Z,100465.83
2018-03-31T21:31:39.421Z,100464.22
2018-03-31T21:34:05.951Z,100460.14
2018-03-31T21:36:32.422Z,100464.27
2018-03-31T21:38:58.926Z,100466.11
2018-03-31T21:41:25.387Z,100468.63
2018-03-31T21:43:51.864Z,100468.04
2018-03-31T21:46:18.502Z,100474.27
2018-03-31T21:48:45.725Z,100472.21
2018-03-31T21:51:12.242Z,100470.33
2018-03-31T21:53:38.938Z,100468.03
2018-03-31T21:56:06.201Z,100467.05
2018-03-31T21:58:33.460Z,100463.28
2018-03-31T22:01:00.813Z,100454.89
2018-03-31T22:03:27.326Z,100456.77
2018-03-31T22:05:53.807Z,100460.14
2018-03-31T22:08:20.422Z,100461.89
2018-03-31T22:10:47.634Z,100464.08
2018-03-31T22:13:20.092Z,100461.04
2018-03-31T22:15:48.648Z,100462.38
2018-03-31T22:18:15.336Z,100464.98
2018-03-31T22:20:41.967Z,100465.78
2018-03-31T22:23:08.628Z,100473.54
2018-03-31T22:25:35.142Z,100473.55
2018-03-31T22:28:01.669Z,100478.06
2018-03-31T22:30:28.282Z,100481.35
2018-03-31T22:32:54.811Z,100489.42
2018-03-31T22:35:22.043Z,100491.52
2018-03-31T22:37:49.419Z,100496.05
2018-03-31T22:40:16.638Z,100501.94
2018-03-31T22:42:43.114Z,100510.41
2018-03-31T22:45:09.708Z,100502.83
2018-03-31T22:47:36.175Z,100509.33
2018-03-31T22:50:03.393Z,100512.26
2018-03-31T22:52:29.956Z,100511.90
2018-03-31T22:54:57.173Z,100517.82
2018-03-31T22:57:23.653Z,100520.72
2018-03-31T22:59:50.213Z,100517.72
2018-03-31T23:02:16.749Z,100514.86
2018-03-31T23:04:43.272Z,100514.05
2018-03-31T23:07:10.541Z,100511.22
2018-03-31T23:09:37.081Z,100511.90
2018-03-31T23:12:03.617Z,100522.16
2018-03-31T23:14:30.312Z,100518.21
2018-03-31T23:16:56.828Z,100523.33
2018-03-31T23:19:23.348Z,100526.52
2018-03-31T23:21:50.029Z,100525.03
2018-03-31T23:24:16.511Z,100523.23
2018-03-31T23:26:43.000Z,100527.55
2018-03-31T23:29:10.409Z,100528.84
2018-03-31T23:31:36.870Z,100528.04
2018-03-31T23:34:03.346Z,100534.67
2018-03-31T23:36:30.702Z,100533.41
2018-03-31T23:38:57.921Z,100526.33
2018-03-31T23:41:24.453Z,100523.81
2018-03-31T23:43:51.108Z,100520.35
2018-03-31T23:46:17.612Z,100528.19
2018-03-31T23:48:44.087Z,100526.01
2018-03-31T23:51:10.820Z,100524.66
2018-03-31T23:53:37.286Z,100522.14
2018-03-31T23:56:04.552Z,100522.28
2018-03-31T23:58:31.065Z,100530.12
